createdAt,value
2023-09-14T00:00:38.668Z,14.01
2023-09-14T00:01:39.179Z,14.00
2023-09-14T00:02:38.601Z,13.99
2023-09-14T00:03:38.771Z,13.99
2023-09-14T00:04:38.760Z,13.98
2023-09-14T00:05:38.592Z,13.96
2023-09-14T00:06:38.610Z,13.95
2023-09-14T00:07:38.444Z,13.94
2023-09-14T00:08:38.564Z,13.94
2023-09-14T00:09:38.564Z,13.93
2023-09-14T00:10:37.861Z,13.91
2023-09-14T00:11:37.849Z,13.89
2023-09-14T00:12:40.336Z,13.88
2023-09-14T00:13:38.502Z,13.86
2023-09-14T00:14:38.488Z,13.85
2023-09-14T00:15:38.529Z,13.85
2023-09-14T00:16:38.596Z,13.84
2023-09-14T00:17:38.493Z,13.83
2023-09-14T00:18:38.496Z,13.84
2023-09-14T00:19:38.438Z,13.81
2023-09-14T00:20:37.764Z,13.81
2023-09-14T00:21:38.467Z,13.80
2023-09-14T00:22:37.745Z,13.79
2023-09-14T00:23:40.154Z,13.78
2023-09-14T00:24:37.827Z,13.77
2023-09-14T00:25:37.704Z,13.76
2023-09-14T00:26:38.355Z,13.75
2023-09-14T00:27:38.442Z,13.74
2023-09-14T00:28:38.402Z,13.73
2023-09-14T00:29:38.331Z,13.73
2023-09-14T00:30:37.687Z,13.71
2023-09-14T00:31:38.308Z,13.70
2023-09-14T00:32:38.330Z,13.68
2023-09-14T00:33:38.325Z,13.67
2023-09-14T00:34:38.279Z,13.65
2023-09-14T00:35:37.611Z,13.64
2023-09-14T00:36:37.697Z,13.62
2023-09-14T00:37:38.244Z,13.61
2023-09-14T00:38:37.555Z,13.60
2023-09-14T00:39:37.572Z,13.59
2023-09-14T00:40:38.200Z,13.57
2023-09-14T00:41:37.529Z,13.56
2023-09-14T00:42:37.521Z,13.54
2023-09-14T00:43:38.184Z,13.53
2023-09-14T00:44:37.500Z,13.52
2023-09-14T00:45:38.159Z,13.51
2023-09-14T00:46:38.187Z,13.50
2023-09-14T00:47:37.474Z,13.48
2023-09-14T00:48:37.468Z,13.47
2023-09-14T00:49:37.447Z,13.45
2023-09-14T00:50:38.106Z,13.44
2023-09-14T00:51:38.123Z,13.42
2023-09-14T00:52:38.096Z,13.41
2023-09-14T00:53:38.082Z,13.40
2023-09-14T00:54:38.079Z,13.38
2023-09-14T00:55:38.063Z,13.37
2023-09-14T00:56:38.048Z,13.36
2023-09-14T00:57:38.052Z,13.35
2023-09-14T00:58:38.006Z,13.33
2023-09-14T00:59:38.026Z,13.31
2023-09-14T01:00:38.118Z,13.30
2023-09-14T01:01:38.056Z,13.29
2023-09-14T01:02:38.076Z,13.28
2023-09-14T01:03:38.020Z,13.27
2023-09-14T01:04:37.313Z,13.27
2023-09-14T01:05:37.291Z,13.25
2023-09-14T01:06:37.942Z,13.24
2023-09-14T01:07:37.261Z,13.24
2023-09-14T01:08:37.900Z,13.22
2023-09-14T01:09:37.964Z,13.21
2023-09-14T01:10:37.894Z,13.21
2023-09-14T01:11:37.891Z,13.19
2023-09-14T01:12:37.873Z,13.20
2023-09-14T01:13:39.141Z,13.18
2023-09-14T01:14:37.851Z,13.17
2023-09-14T01:15:37.167Z,13.17
2023-09-14T01:16:37.195Z,13.16
2023-09-14T01:17:37.649Z,13.15
2023-09-14T01:18:37.866Z,13.15
2023-09-14T01:19:37.797Z,13.15
2023-09-14T01:20:37.131Z,13.15
2023-09-14T01:21:37.820Z,13.15
2023-09-14T01:22:37.749Z,13.14
2023-09-14T01:23:38.512Z,13.14
2023-09-14T01:24:37.762Z,13.13
2023-09-14T01:25:37.047Z,13.13
2023-09-14T01:26:37.698Z,13.12
2023-09-14T01:27:37.697Z,13.11
2023-09-14T01:28:37.023Z,13.11
2023-09-14T01:29:37.689Z,13.09
2023-09-14T01:30:36.994Z,13.08
2023-09-14T01:31:37.649Z,13.07
2023-09-14T01:32:37.665Z,13.07
2023-09-14T01:33:37.669Z,13.06
2023-09-14T01:34:37.689Z,13.05
2023-09-14T01:35:37.639Z,13.03
2023-09-14T01:36:37.640Z,13.03
2023-09-14T01:37:36.960Z,13.02
2023-09-14T01:38:37.597Z,13.02
2023-09-14T01:39:36.944Z,13.01
2023-09-14T01:40:37.561Z,13.01
2023-09-14T01:41:36.905Z,13.01
2023-09-14T01:42:37.635Z,12.99
2023-09-14T01:43:37.532Z,13.00
2023-09-14T01:44:37.521Z,13.00
2023-09-14T01:45:37.509Z,13.00
2023-09-14T01:46:37.534Z,12.99
2023-09-14T01:47:37.583Z,13.00
2023-09-14T01:48:37.517Z,12.99
2023-09-14T01:49:37.467Z,12.99
2023-09-14T01:50:37.439Z,12.98
2023-09-14T01:51:37.477Z,12.98
2023-09-14T01:52:38.881Z,12.97
2023-09-14T01:53:37.424Z,12.95
2023-09-14T01:54:36.775Z,12.93
2023-09-14T01:55:37.383Z,12.92
2023-09-14T01:56:36.699Z,12.91
2023-09-14T01:57:37.418Z,12.91
2023-09-14T01:58:37.373Z,12.89
2023-09-14T01:59:37.366Z,12.89
2023-09-14T02:00:37.412Z,12.88
2023-09-14T02:01:37.395Z,12.88
2023-09-14T02:02:36.661Z,12.88
2023-09-14T02:03:37.366Z,12.87
2023-09-14T02:04:37.586Z,12.86
2023-09-14T02:05:36.615Z,12.86
2023-09-14T02:06:37.320Z,12.85
2023-09-14T02:07:37.271Z,12.85
2023-09-14T02:08:37.530Z,12.84
2023-09-14T02:09:36.645Z,12.84
2023-09-14T02:10:38.499Z,12.82
2023-09-14T02:11:37.231Z,12.82
2023-09-14T02:12:37.294Z,12.81
2023-09-14T02:13:37.187Z,12.80
2023-09-14T02:14:37.195Z,12.79
2023-09-14T02:15:36.519Z,12.78
2023-09-14T02:16:39.039Z,12.77
2023-09-14T02:17:37.195Z,12.76
2023-09-14T02:18:37.160Z,12.76
2023-09-14T02:19:37.147Z,12.73
2023-09-14T02:20:37.131Z,12.73
2023-09-14T02:21:37.164Z,12.71
2023-09-14T02:22:36.465Z,12.70
2023-09-14T02:23:37.084Z,12.69
2023-09-14T02:24:37.110Z,12.67
2023-09-14T02:25:36.401Z,12.67
2023-09-14T02:26:37.078Z,12.65
2023-09-14T02:27:36.441Z,12.64
2023-09-14T02:28:37.036Z,12.63
2023-09-14T02:29:36.358Z,12.62
2023-09-14T02:30:36.350Z,12.63
2023-09-14T02:31:36.384Z,12.63
2023-09-14T02:32:37.019Z,12.61
2023-09-14T02:33:36.356Z,12.62
2023-09-14T02:34:36.317Z,12.62
2023-09-14T02:35:36.282Z,12.62
2023-09-14T02:36:36.987Z,12.60
2023-09-14T02:37:36.923Z,12.60
2023-09-14T02:38:36.262Z,12.59
2023-09-14T02:39:36.302Z,12.59
2023-09-14T02:40:36.931Z,12.58
2023-09-14T02:41:36.260Z,12.57
2023-09-14T02:42:36.265Z,12.58
2023-09-14T02:43:36.887Z,12.57
2023-09-14T02:44:36.874Z,12.57
2023-09-14T02:45:37.003Z,12.56
2023-09-14T02:46:36.904Z,12.56
2023-09-14T02:47:37.127Z,12.56
2023-09-14T02:48:36.861Z,12.56
2023-09-14T02:49:36.823Z,12.55
2023-09-14T02:50:36.794Z,12.55
2023-09-14T02:51:37.614Z,12.55
2023-09-14T02:52:36.787Z,12.55
2023-09-14T02:53:36.776Z,12.55
2023-09-14T02:54:36.777Z,12.54
2023-09-14T02:55:36.735Z,12.54
2023-09-14T02:56:36.746Z,12.52
2023-09-14T02:57:36.763Z,12.52
2023-09-14T02:58:36.724Z,12.51
2023-09-14T02:59:36.710Z,12.50
2023-09-14T03:00:36.693Z,12.49
2023-09-14T03:01:36.722Z,12.48
2023-09-14T03:02:36.719Z,12.46
2023-09-14T03:03:36.738Z,12.44
2023-09-14T03:04:36.649Z,12.43
2023-09-14T03:05:35.991Z,12.41
2023-09-14T03:06:36.037Z,12.39
2023-09-14T03:07:37.885Z,12.38
2023-09-14T03:08:36.615Z,12.36
2023-09-14T03:09:36.618Z,12.35
2023-09-14T03:10:36.599Z,12.34
2023-09-14T03:11:36.579Z,12.33
2023-09-14T03:12:36.597Z,12.32
2023-09-14T03:13:36.561Z,12.31
2023-09-14T03:14:36.540Z,12.30
2023-09-14T03:15:36.577Z,12.29
2023-09-14T03:16:37.400Z,12.28
2023-09-14T03:17:36.562Z,12.27
2023-09-14T03:18:36.521Z,12.25
2023-09-14T03:19:37.814Z,12.24
2023-09-14T03:20:36.487Z,12.22
2023-09-14T03:21:36.534Z,12.22
2023-09-14T03:22:36.470Z,12.21
2023-09-14T03:23:36.472Z,12.21
2023-09-14T03:24:36.523Z,12.19
2023-09-14T03:25:38.218Z,12.18
2023-09-14T03:26:36.426Z,12.20
2023-09-14T03:27:36.696Z,12.19
2023-09-14T03:28:36.382Z,12.17
2023-09-14T03:29:36.399Z,12.17
2023-09-14T03:30:36.541Z,12.16
2023-09-14T03:31:37.709Z,12.17
2023-09-14T03:32:37.654Z,12.16
2023-09-14T03:33:36.371Z,12.15
2023-09-14T03:34:36.344Z,12.15
2023-09-14T03:35:36.329Z,12.13
2023-09-14T03:36:36.366Z,12.13
2023-09-14T03:37:35.637Z,12.12
2023-09-14T03:38:36.276Z,12.11
2023-09-14T03:39:36.321Z,12.11
2023-09-14T03:40:36.278Z,12.10
2023-09-14T03:41:36.265Z,12.09
2023-09-14T03:42:36.281Z,12.08
2023-09-14T03:43:37.009Z,12.08
2023-09-14T03:44:35.557Z,12.06
2023-09-14T03:45:36.303Z,12.06
2023-09-14T03:46:36.289Z,12.06
2023-09-14T03:47:36.203Z,12.04
2023-09-14T03:48:36.253Z,12.04
2023-09-14T03:49:36.220Z,12.03
2023-09-14T03:50:36.251Z,12.01
2023-09-14T03:51:38.011Z,12.01
2023-09-14T03:52:37.933Z,12.01
2023-09-14T03:53:35.573Z,11.99
2023-09-14T03:54:36.171Z,11.99
2023-09-14T03:55:36.116Z,11.98
2023-09-14T03:56:36.090Z,11.98
2023-09-14T03:57:35.435Z,11.97
2023-09-14T03:58:36.301Z,11.96
2023-09-14T03:59:35.426Z,11.96
2023-09-14T04:00:35.465Z,11.95
2023-09-14T04:01:36.179Z,11.94
2023-09-14T04:02:35.471Z,11.93
2023-09-14T04:03:36.142Z,11.92
2023-09-14T04:04:36.305Z,11.90
2023-09-14T04:05:37.319Z,11.91
2023-09-14T04:06:36.042Z,11.89
2023-09-14T04:07:35.314Z,11.88
2023-09-14T04:08:35.979Z,11.87
2023-09-14T04:09:36.009Z,11.86
2023-09-14T04:10:37.748Z,11.84
2023-09-14T04:11:37.206Z,11.83
2023-09-14T04:12:35.970Z,11.82
2023-09-14T04:13:35.968Z,11.81
2023-09-14T04:14:35.930Z,11.80
2023-09-14T04:15:35.962Z,11.79
2023-09-14T04:16:35.473Z,11.78
2023-09-14T04:17:35.944Z,11.77
2023-09-14T04:18:35.967Z,11.76
2023-09-14T04:19:35.844Z,11.76
2023-09-14T04:20:35.840Z,11.76
2023-09-14T04:21:36.639Z,11.75
2023-09-14T04:22:35.834Z,11.73
2023-09-14T04:23:35.826Z,11.73
2023-09-14T04:24:35.161Z,11.72
2023-09-14T04:25:35.798Z,11.72
2023-09-14T04:26:35.118Z,11.71
2023-09-14T04:27:35.103Z,11.69
2023-09-14T04:28:36.551Z,11.69
2023-09-14T04:29:35.107Z,11.68
2023-09-14T04:30:35.783Z,11.67
2023-09-14T04:31:35.134Z,11.66
2023-09-14T04:32:36.040Z,11.66
2023-09-14T04:33:35.057Z,11.65
2023-09-14T04:34:35.679Z,11.63
2023-09-14T04:35:35.010Z,11.63
2023-09-14T04:36:35.022Z,11.62
2023-09-14T04:37:35.663Z,11.62
2023-09-14T04:38:35.029Z,11.62
2023-09-14T04:39:34.952Z,11.62
2023-09-14T04:40:35.889Z,11.62
2023-09-14T04:41:35.631Z,11.62
2023-09-14T04:42:35.008Z,11.62
2023-09-14T04:43:35.625Z,11.62
2023-09-14T04:44:35.589Z,11.61
2023-09-14T04:45:35.576Z,11.62
2023-09-14T04:46:35.743Z,11.61
2023-09-14T04:47:35.594Z,11.62
2023-09-14T04:48:35.882Z,11.62
2023-09-14T04:49:35.537Z,11.63
2023-09-14T04:50:35.545Z,11.63
2023-09-14T04:51:34.882Z,11.62
2023-09-14T04:52:34.878Z,11.62
2023-09-14T04:53:34.814Z,11.63
2023-09-14T04:54:34.801Z,11.63
2023-09-14T04:55:35.474Z,11.63
2023-09-14T04:56:34.763Z,11.63
2023-09-14T04:57:35.433Z,11.65
2023-09-14T04:58:34.784Z,11.66
2023-09-14T04:59:35.431Z,11.65
2023-09-14T05:00:35.723Z,11.66
2023-09-14T05:01:34.864Z,11.65
2023-09-14T05:02:35.389Z,11.66
2023-09-14T05:03:35.401Z,11.66
2023-09-14T05:04:36.249Z,11.67
2023-09-14T05:05:35.363Z,11.69
2023-09-14T05:06:35.333Z,11.70
2023-09-14T05:07:34.659Z,11.72
2023-09-14T05:08:34.685Z,11.72
2023-09-14T05:09:34.664Z,11.75
2023-09-14T05:10:35.307Z,11.77
2023-09-14T05:11:35.291Z,11.79
2023-09-14T05:12:35.296Z,11.81
2023-09-14T05:13:35.283Z,11.82
2023-09-14T05:14:35.262Z,11.85
2023-09-14T05:15:35.234Z,11.87
2023-09-14T05:16:35.552Z,11.90
2023-09-14T05:17:35.257Z,11.93
2023-09-14T05:18:35.226Z,11.97
2023-09-14T05:19:35.210Z,12.02
2023-09-14T05:20:35.188Z,12.05
2023-09-14T05:21:34.526Z,12.09
2023-09-14T05:22:35.185Z,12.15
2023-09-14T05:23:34.483Z,12.22
2023-09-14T05:24:35.165Z,12.29
2023-09-14T05:25:35.134Z,12.36
2023-09-14T05:26:35.135Z,12.43
2023-09-14T05:27:35.128Z,12.50
2023-09-14T05:28:35.895Z,12.56
2023-09-14T05:29:35.078Z,12.60
2023-09-14T05:30:35.132Z,12.64
2023-09-14T05:31:35.192Z,12.72
2023-09-14T05:32:35.071Z,12.82
2023-09-14T05:33:35.095Z,12.91
2023-09-14T05:34:35.031Z,12.99
2023-09-14T05:35:35.020Z,13.07
2023-09-14T05:36:35.025Z,13.13
2023-09-14T05:37:35.026Z,13.20
2023-09-14T05:38:35.021Z,13.26
2023-09-14T05:39:34.358Z,13.37
2023-09-14T05:40:34.985Z,13.53
2023-09-14T05:41:34.304Z,13.72
2023-09-14T05:42:34.282Z,13.90
2023-09-14T05:43:34.931Z,14.03
2023-09-14T05:44:34.928Z,14.16
2023-09-14T05:45:34.943Z,14.26
2023-09-14T05:46:35.064Z,14.34
2023-09-14T05:47:34.242Z,14.40
2023-09-14T05:48:34.239Z,14.45
2023-09-14T05:49:34.222Z,14.51
2023-09-14T05:50:34.204Z,14.56
2023-09-14T05:51:34.190Z,14.62
2023-09-14T05:52:34.640Z,14.68
2023-09-14T05:53:34.923Z,14.72
2023-09-14T05:54:34.834Z,14.79
2023-09-14T05:55:34.824Z,14.82
2023-09-14T05:56:34.146Z,14.86
2023-09-14T05:57:34.790Z,14.90
2023-09-14T05:58:34.146Z,14.96
2023-09-14T05:59:34.785Z,15.08
2023-09-14T06:00:34.821Z,15.22
2023-09-14T06:01:34.112Z,15.31
2023-09-14T06:02:34.131Z,15.40
2023-09-14T06:03:34.139Z,15.53
2023-09-14T06:04:34.147Z,15.66
2023-09-14T06:05:34.849Z,15.81
2023-09-14T06:06:34.706Z,15.92
2023-09-14T06:07:34.694Z,16.03
2023-09-14T06:08:34.013Z,16.17
2023-09-14T06:09:34.004Z,16.26
2023-09-14T06:10:34.006Z,16.31
2023-09-14T06:11:35.940Z,16.33
2023-09-14T06:12:33.978Z,16.35
2023-09-14T06:13:34.741Z,16.39
2023-09-14T06:14:33.939Z,16.43
2023-09-14T06:15:34.614Z,16.50
2023-09-14T06:16:34.022Z,16.62
2023-09-14T06:17:34.579Z,16.73
2023-09-14T06:18:33.935Z,16.84
2023-09-14T06:19:34.578Z,16.98
2023-09-14T06:20:34.561Z,17.15
2023-09-14T06:21:35.798Z,17.28
2023-09-14T06:22:34.546Z,17.39
2023-09-14T06:23:33.913Z,17.52
2023-09-14T06:24:33.852Z,17.64
2023-09-14T06:25:33.870Z,17.77
2023-09-14T06:26:34.470Z,17.89
2023-09-14T06:27:34.477Z,17.98
2023-09-14T06:28:34.465Z,18.07
2023-09-14T06:29:34.470Z,18.16
2023-09-14T06:30:34.496Z,18.25
2023-09-14T06:31:33.950Z,18.35
2023-09-14T06:32:33.758Z,18.45
2023-09-14T06:33:34.424Z,18.56
2023-09-14T06:34:33.766Z,18.66
2023-09-14T06:35:33.734Z,18.80
2023-09-14T06:36:33.718Z,18.96
2023-09-14T06:37:34.374Z,19.23
2023-09-14T06:38:34.360Z,19.60
2023-09-14T06:39:33.691Z,19.98
2023-09-14T06:40:33.674Z,20.41
2023-09-14T06:41:33.647Z,20.88
2023-09-14T06:42:34.317Z,21.35
2023-09-14T06:43:34.308Z,21.80
2023-09-14T06:44:33.642Z,22.23
2023-09-14T06:45:33.622Z,22.67
2023-09-14T06:46:36.119Z,23.11
2023-09-14T06:47:33.633Z,23.52
2023-09-14T06:48:33.592Z,23.96
2023-09-14T06:49:34.221Z,24.33
2023-09-14T06:50:34.231Z,24.69
2023-09-14T06:51:34.223Z,25.01
2023-09-14T06:52:34.220Z,25.28
2023-09-14T06:53:34.204Z,25.57
2023-09-14T06:54:33.545Z,25.87
2023-09-14T06:55:33.537Z,26.24
2023-09-14T06:56:33.486Z,26.70
2023-09-14T06:57:33.499Z,27.15
2023-09-14T06:58:33.551Z,27.53
2023-09-14T06:59:34.133Z,27.83
2023-09-14T07:00:34.147Z,28.11
2023-09-14T07:01:34.190Z,28.39
2023-09-14T07:02:37.598Z,28.70
2023-09-14T07:03:34.452Z,28.96
2023-09-14T07:04:34.095Z,29.09
2023-09-14T07:05:34.078Z,29.32
2023-09-14T07:06:34.062Z,29.41
2023-09-14T07:07:34.028Z,29.43
2023-09-14T07:08:34.016Z,29.52
2023-09-14T07:09:34.314Z,29.63
2023-09-14T07:10:34.307Z,29.69
2023-09-14T07:11:34.002Z,29.79
2023-09-14T07:12:33.340Z,29.90
2023-09-14T07:13:33.984Z,30.05
2023-09-14T07:14:34.760Z,30.15
2023-09-14T07:15:33.270Z,30.20
2023-09-14T07:16:34.110Z,30.23
2023-09-14T07:17:34.005Z,30.28
2023-09-14T07:18:33.958Z,30.44
2023-09-14T07:19:33.951Z,30.61
2023-09-14T07:20:33.912Z,30.72
2023-09-14T07:21:33.888Z,30.84
2023-09-14T07:22:33.882Z,31.07
2023-09-14T07:23:33.883Z,31.34
2023-09-14T07:24:33.873Z,31.61
2023-09-14T07:25:33.859Z,31.90
2023-09-14T07:26:34.128Z,32.15
2023-09-14T07:27:33.839Z,32.38
2023-09-14T07:28:33.152Z,32.48
2023-09-14T07:29:33.815Z,32.47
2023-09-14T07:30:33.787Z,32.50
2023-09-14T07:31:35.607Z,32.57
2023-09-14T07:32:33.786Z,32.68
2023-09-14T07:33:33.780Z,32.82
2023-09-14T07:34:33.756Z,32.98
2023-09-14T07:35:33.740Z,33.10
2023-09-14T07:36:34.998Z,33.29
2023-09-14T07:37:33.729Z,33.45
2023-09-14T07:38:33.068Z,33.62
2023-09-14T07:39:33.672Z,33.71
2023-09-14T07:40:33.677Z,33.71
2023-09-14T07:41:33.696Z,33.70
2023-09-14T07:42:33.679Z,33.70
2023-09-14T07:43:33.660Z,33.82
2023-09-14T07:44:33.640Z,33.99
2023-09-14T07:45:34.103Z,34.19
2023-09-14T07:46:33.661Z,34.44
2023-09-14T07:47:32.971Z,34.62
2023-09-14T07:48:33.618Z,34.77
2023-09-14T07:49:33.584Z,34.97
2023-09-14T07:50:33.588Z,35.15
2023-09-14T07:51:32.902Z,35.32
2023-09-14T07:52:32.886Z,35.49
2023-09-14T07:53:33.560Z,35.64
2023-09-14T07:54:33.528Z,35.68
2023-09-14T07:55:32.863Z,35.73
2023-09-14T07:56:32.856Z,35.90
2023-09-14T07:57:32.870Z,36.01
2023-09-14T07:58:33.537Z,36.14
2023-09-14T07:59:33.482Z,36.28
2023-09-14T08:00:36.110Z,36.43
2023-09-14T08:01:32.816Z,36.58
2023-09-14T08:02:32.814Z,36.65
2023-09-14T08:03:32.915Z,36.75
2023-09-14T08:04:33.565Z,36.83
2023-09-14T08:05:33.486Z,36.94
2023-09-14T08:06:32.750Z,37.03
2023-09-14T08:07:33.411Z,37.13
2023-09-14T08:08:33.379Z,37.23
2023-09-14T08:09:33.384Z,37.33
2023-09-14T08:10:33.381Z,37.48
2023-09-14T08:11:32.852Z,37.64
2023-09-14T08:12:33.340Z,37.79
2023-09-14T08:13:32.716Z,37.95
2023-09-14T08:14:32.662Z,38.04
2023-09-14T08:15:32.720Z,38.13
2023-09-14T08:16:33.370Z,38.10
2023-09-14T08:17:33.324Z,38.01
2023-09-14T08:18:34.751Z,37.87
2023-09-14T08:19:33.287Z,37.76
2023-09-14T08:20:32.597Z,37.57
2023-09-14T08:21:32.591Z,37.36
2023-09-14T08:22:33.224Z,37.24
2023-09-14T08:23:34.066Z,37.15
2023-09-14T08:24:32.564Z,37.15
2023-09-14T08:25:33.221Z,37.17
2023-09-14T08:26:33.189Z,37.20
2023-09-14T08:27:32.555Z,37.16
2023-09-14T08:28:33.185Z,37.11
2023-09-14T08:29:33.168Z,37.09
2023-09-14T08:30:32.503Z,37.01
2023-09-14T08:31:32.757Z,36.93
2023-09-14T08:32:33.207Z,36.98
2023-09-14T08:33:32.519Z,37.04
2023-09-14T08:34:33.124Z,37.08
2023-09-14T08:35:34.375Z,37.04
2023-09-14T08:36:33.388Z,36.93
2023-09-14T08:37:33.090Z,36.91
2023-09-14T08:38:33.075Z,36.87
2023-09-14T08:39:33.095Z,36.84
2023-09-14T08:40:33.229Z,36.77
2023-09-14T08:41:33.029Z,36.69
2023-09-14T08:42:33.043Z,36.47
2023-09-14T08:43:32.353Z,36.37
2023-09-14T08:44:32.345Z,36.27
2023-09-14T08:45:32.356Z,36.11
2023-09-14T08:46:32.411Z,35.93
2023-09-14T08:47:32.367Z,35.48
2023-09-14T08:48:32.981Z,35.47
2023-09-14T08:49:32.937Z,35.41
2023-09-14T08:50:33.142Z,35.20
2023-09-14T08:51:32.269Z,35.05
2023-09-14T08:52:32.928Z,34.88
2023-09-14T08:53:32.915Z,34.60
2023-09-14T08:54:32.888Z,34.41
2023-09-14T08:55:32.899Z,34.61
2023-09-14T08:56:32.206Z,34.36
2023-09-14T08:57:32.877Z,34.47
2023-09-14T08:58:32.889Z,34.36
2023-09-14T08:59:32.923Z,34.49
2023-09-14T09:00:32.914Z,34.61
2023-09-14T09:01:32.901Z,34.69
2023-09-14T09:02:32.152Z,34.71
2023-09-14T09:03:33.591Z,34.66
2023-09-14T09:04:32.931Z,34.58
2023-09-14T09:05:32.150Z,34.55
2023-09-14T09:06:32.142Z,34.45
2023-09-14T09:07:32.774Z,34.33
2023-09-14T09:08:32.735Z,34.22
2023-09-14T09:09:32.081Z,34.13
2023-09-14T09:10:32.745Z,33.98
2023-09-14T09:11:32.045Z,33.86
2023-09-14T09:12:32.047Z,33.81
2023-09-14T09:13:32.717Z,33.75
2023-09-14T09:14:32.032Z,33.64
2023-09-14T09:15:32.006Z,33.50
2023-09-14T09:16:32.715Z,33.36
2023-09-14T09:17:32.055Z,33.22
2023-09-14T09:18:32.103Z,33.17
2023-09-14T09:19:32.717Z,33.11
2023-09-14T09:20:32.725Z,32.99
2023-09-14T09:21:32.612Z,32.84
2023-09-14T09:22:33.346Z,32.69
2023-09-14T09:23:31.925Z,32.55
2023-09-14T09:24:31.917Z,32.47
2023-09-14T09:25:31.887Z,32.40
2023-09-14T09:26:31.903Z,32.30
2023-09-14T09:27:31.895Z,32.27
2023-09-14T09:28:32.563Z,32.24
2023-09-14T09:29:32.528Z,32.09
2023-09-14T09:30:32.026Z,32.00
2023-09-14T09:31:32.514Z,31.90
2023-09-14T09:32:32.498Z,31.74
2023-09-14T09:33:32.666Z,31.56
2023-09-14T09:34:31.865Z,31.41
2023-09-14T09:35:32.675Z,31.31
2023-09-14T09:36:32.446Z,31.19
2023-09-14T09:37:31.762Z,31.02
2023-09-14T09:38:31.756Z,30.76
2023-09-14T09:39:31.777Z,30.56
2023-09-14T09:40:32.500Z,30.40
2023-09-14T09:41:32.380Z,30.27
2023-09-14T09:42:31.691Z,30.15
2023-09-14T09:43:31.774Z,30.06
2023-09-14T09:44:31.688Z,29.95
2023-09-14T09:45:31.739Z,29.82
2023-09-14T09:46:33.214Z,29.65
2023-09-14T09:47:31.688Z,29.54
2023-09-14T09:48:32.414Z,29.47
2023-09-14T09:49:32.413Z,29.41
2023-09-14T09:50:31.697Z,29.38
2023-09-14T09:51:32.301Z,29.38
2023-09-14T09:52:32.366Z,29.37
2023-09-14T09:53:32.277Z,29.33
2023-09-14T09:54:32.256Z,29.25
2023-09-14T09:55:32.293Z,29.15
2023-09-14T09:56:32.235Z,29.12
2023-09-14T09:57:31.539Z,29.11
2023-09-14T09:58:32.222Z,29.09
2023-09-14T09:59:32.192Z,29.11
2023-09-14T10:00:31.541Z,29.13
2023-09-14T10:01:31.693Z,29.18
2023-09-14T10:02:32.249Z,29.25
2023-09-14T10:03:31.738Z,29.34
2023-09-14T10:04:32.191Z,29.46
2023-09-14T10:05:31.472Z,29.61
2023-09-14T10:06:31.457Z,29.74
2023-09-14T10:07:31.453Z,29.87
2023-09-14T10:08:32.086Z,29.96
2023-09-14T10:09:32.082Z,30.06
2023-09-14T10:10:31.442Z,30.20
2023-09-14T10:11:32.075Z,30.34
2023-09-14T10:12:31.428Z,30.46
2023-09-14T10:13:33.348Z,30.58
2023-09-14T10:14:32.097Z,30.70
2023-09-14T10:15:31.388Z,30.84
2023-09-14T10:16:32.082Z,30.98
2023-09-14T10:17:32.034Z,31.09
2023-09-14T10:18:31.345Z,31.20
2023-09-14T10:19:32.000Z,31.21
2023-09-14T10:20:31.989Z,31.18
2023-09-14T10:21:31.995Z,31.07
2023-09-14T10:22:31.958Z,30.91
2023-09-14T10:23:31.351Z,30.91
2023-09-14T10:24:31.262Z,30.91
2023-09-14T10:25:31.943Z,30.81
2023-09-14T10:26:31.235Z,30.51
2023-09-14T10:27:31.889Z,30.02
2023-09-14T10:28:31.269Z,29.34
2023-09-14T10:29:31.883Z,28.70
2023-09-14T10:30:31.926Z,28.13
2023-09-14T10:31:31.292Z,27.62
2023-09-14T10:32:31.256Z,27.17
2023-09-14T10:33:31.842Z,26.82
2023-09-14T10:34:31.855Z,26.50
2023-09-14T10:35:31.822Z,26.21
2023-09-14T10:36:31.165Z,25.89
2023-09-14T10:37:31.876Z,25.59
2023-09-14T10:38:31.104Z,25.33
2023-09-14T10:39:31.097Z,25.14
2023-09-14T10:40:31.188Z,25.07
2023-09-14T10:41:31.095Z,25.02
2023-09-14T10:42:31.061Z,24.99
2023-09-14T10:43:31.116Z,24.99
2023-09-14T10:44:31.102Z,24.97
2023-09-14T10:45:31.027Z,24.96
2023-09-14T10:46:31.147Z,24.85
2023-09-14T10:47:31.725Z,24.78
2023-09-14T10:48:42.458Z,24.76
2023-09-14T10:49:32.015Z,24.64
2023-09-14T10:50:30.996Z,24.52
2023-09-14T10:51:30.990Z,24.35
2023-09-14T10:52:30.954Z,24.16
2023-09-14T10:53:30.948Z,23.95
2023-09-14T10:54:30.954Z,23.77
2023-09-14T10:55:30.960Z,23.60
2023-09-14T10:56:31.609Z,23.47
2023-09-14T10:57:30.903Z,23.30
2023-09-14T10:58:30.956Z,23.14
2023-09-14T10:59:31.559Z,23.03
2023-09-14T11:00:50.516Z,22.96
2023-09-14T11:01:51.903Z,22.89
2023-09-14T11:02:47.749Z,22.83
2023-09-14T11:03:31.993Z,22.75
2023-09-14T11:04:31.028Z,22.70
2023-09-14T11:05:31.744Z,22.61
2023-09-14T11:06:30.962Z,22.56
2023-09-14T11:07:31.566Z,22.59
2023-09-14T11:08:32.460Z,22.62
2023-09-14T11:09:30.995Z,22.59
2023-09-14T11:10:31.529Z,22.56
2023-09-14T11:11:31.016Z,22.56
2023-09-14T11:12:31.299Z,22.57
2023-09-14T11:13:30.913Z,22.54
2023-09-14T11:14:32.110Z,22.56
2023-09-14T11:15:30.964Z,22.61
2023-09-14T11:16:31.430Z,22.68
2023-09-14T11:17:30.775Z,22.73
2023-09-14T11:18:31.218Z,22.73
2023-09-14T11:19:42.891Z,22.77
2023-09-14T11:20:34.094Z,22.80
2023-09-14T11:21:30.911Z,22.87
2023-09-14T11:22:32.049Z,22.93
2023-09-14T11:23:31.412Z,22.97
2023-09-14T11:24:30.776Z,23.00
2023-09-14T11:25:36.822Z,23.06
2023-09-14T11:26:32.049Z,23.13
2023-09-14T11:27:30.915Z,23.16
2023-09-14T11:28:30.851Z,23.18
2023-09-14T11:29:32.740Z,23.23
2023-09-14T11:30:32.574Z,23.28
2023-09-14T11:31:52.474Z,23.34
2023-09-14T11:32:32.419Z,23.42
2023-09-14T11:33:31.496Z,23.48
2023-09-14T11:34:33.472Z,23.56
2023-09-14T11:35:32.378Z,23.57
2023-09-14T11:36:31.123Z,23.55
2023-09-14T11:37:34.197Z,23.52
2023-09-14T11:38:33.936Z,23.51
2023-09-14T11:39:31.101Z,23.51
2023-09-14T11:40:31.221Z,23.46
2023-09-14T11:41:33.686Z,23.44
2023-09-14T11:42:34.835Z,23.44
2023-09-14T11:44:45.213Z,23.51
2023-09-14T11:45:35.460Z,23.56
2023-09-14T11:46:34.622Z,23.62
2023-09-14T11:47:34.181Z,23.72
2023-09-14T11:49:30.356Z,24.07
2023-09-14T11:50:31.098Z,24.23
2023-09-14T11:51:30.352Z,24.39
2023-09-14T11:52:30.986Z,24.53
2023-09-14T11:53:30.299Z,24.67
2023-09-14T11:54:32.257Z,24.76
2023-09-14T11:55:30.942Z,24.80
2023-09-14T11:56:30.932Z,24.79
2023-09-14T11:57:30.305Z,24.80
2023-09-14T11:58:30.250Z,24.78
2023-09-14T11:59:30.917Z,24.75
2023-09-14T12:00:30.281Z,24.74
2023-09-14T12:01:30.222Z,24.76
2023-09-14T12:02:30.938Z,24.78
2023-09-14T12:03:30.930Z,24.80
2023-09-14T12:04:30.379Z,24.83
2023-09-14T12:05:30.190Z,24.87
2023-09-14T12:06:31.104Z,24.86
2023-09-14T12:07:30.121Z,24.84
2023-09-14T12:08:30.822Z,24.79
2023-09-14T12:09:39.147Z,24.75
2023-09-14T12:10:31.782Z,24.69
2023-09-14T12:11:30.787Z,24.63
2023-09-14T12:12:30.252Z,24.57
2023-09-14T12:13:31.577Z,24.52
2023-09-14T12:14:30.086Z,24.53
2023-09-14T12:15:30.823Z,24.55
2023-09-14T12:16:32.231Z,24.57
2023-09-14T12:17:30.201Z,24.57
2023-09-14T12:18:31.918Z,24.56
2023-09-14T12:19:30.691Z,24.56
2023-09-14T12:20:30.010Z,24.55
2023-09-14T12:21:30.020Z,24.50
2023-09-14T12:22:31.974Z,24.48
2023-09-14T12:23:30.641Z,24.52
2023-09-14T12:24:30.659Z,24.52
2023-09-14T12:25:29.962Z,24.53
2023-09-14T12:26:29.956Z,24.51
2023-09-14T12:27:30.299Z,24.52
2023-09-14T12:28:30.592Z,24.54
2023-09-14T12:29:30.589Z,24.56
2023-09-14T12:30:30.609Z,24.57
2023-09-14T12:31:29.890Z,24.60
2023-09-14T12:32:30.567Z,24.63
2023-09-14T12:33:30.641Z,24.67
2023-09-14T12:34:30.635Z,24.71
2023-09-14T12:35:30.529Z,24.76
2023-09-14T12:36:30.676Z,24.80
2023-09-14T12:37:29.846Z,24.84
2023-09-14T12:38:40.886Z,24.87
2023-09-14T12:39:32.776Z,24.89
2023-09-14T12:40:30.475Z,24.91
2023-09-14T12:41:30.466Z,24.95
2023-09-14T12:42:29.847Z,24.99
2023-09-14T12:43:29.896Z,25.01
2023-09-14T12:44:30.442Z,25.03
2023-09-14T12:45:30.492Z,25.04
2023-09-14T12:46:29.839Z,25.06
2023-09-14T12:47:29.772Z,25.03
2023-09-14T12:48:30.442Z,24.96
2023-09-14T12:49:30.379Z,24.90
2023-09-14T12:50:30.367Z,24.86
2023-09-14T12:51:30.376Z,24.85
2023-09-14T12:52:30.344Z,24.86
2023-09-14T12:53:30.336Z,24.91
2023-09-14T12:54:29.732Z,24.94